| time (UTC) | temp F | wind direction | speed MPH | gust MPH | rain 1hr in | rain 24hr in | rain mn in | humidity % | barometer mb |
| 20260507060602 | 67 | 126 | 0.0 | 0.0 | 0.00 | 0.00 | 0.00 | 56 | 1016.1 |
| 20260507060049 | 66 | 116 | 2.0 | 2.0 | 0.00 | 0.00 | 0.00 | 59 | 1016.1 |
| 20260507055550 | 67 | 128 | 2.0 | 2.0 | 0.00 | 0.00 | 0.00 | 59 | 1016.1 |
| 20260507055049 | 67 | 126 | 2.0 | 2.0 | 0.00 | 0.00 | 0.00 | 60 | 1016.0 |
| 20260507054549 | 67 | 120 | 2.0 | 2.0 | 0.00 | 0.00 | 0.00 | 59 | 1015.9 |
| 20260507054049 | 69 | 120 | 2.0 | 2.0 | 0.00 | 0.00 | 0.00 | 57 | 1015.7 |
| 20260507053549 | 69 | 120 | 0.0 | 0.0 | 0.00 | 0.00 | 0.00 | 54 | 1015.7 |
| 20260507053036 | 69 | 120 | 0.0 | 0.0 | 0.00 | 0.00 | 0.00 | 54 | 1015.6 |
| 20260507052524 | 69 | 48 | 0.0 | 0.0 | 0.00 | 0.00 | 0.00 | 53 | 1015.6 |
| 20260507052025 | 68 | 48 | 2.0 | 2.0 | 0.00 | 0.00 | 0.00 | 53 | 1015.6 |
| 20260507051512 | 69 | 48 | 0.0 | 0.0 | 0.00 | 0.00 | 0.00 | 53 | 1015.4 |
| 20260507051011 | 68 | 48 | 2.0 | 2.0 | 0.00 | 0.00 | 0.00 | 53 | 1015.5 |
| 20260507050459 | 67 | 48 | 0.0 | 0.0 | 0.00 | 0.00 | 0.00 | 56 | 1015.5 |
| 20260507045959 | 66 | 44 | 2.0 | 2.0 | 0.00 | 0.00 | 0.00 | 58 | 1015.5 |
| 20260507045446 | 66 | 20 | 2.0 | 2.0 | 0.00 | 0.00 | 0.00 | 59 | 1015.4 |
| 20260507044934 | 65 | 20 | 0.0 | 0.0 | 0.00 | 0.00 | 0.00 | 61 | 1015.3 |
| 20260507044434 | 65 | 17 | 0.0 | 0.0 | 0.00 | 0.00 | 0.00 | 61 | 1015.3 |
| 20260507043921 | 64 | 17 | 0.0 | 0.0 | 0.00 | 0.00 | 0.00 | 62 | 1015.3 |
| 20260507043421 | 63 | 17 | 0.0 | 0.0 | 0.00 | 0.00 | 0.00 | 66 | 1015.3 |
| 20260507042909 | 62 | 17 | 0.0 | 0.0 | 0.00 | 0.00 | 0.00 | 63 | 1015.3 |
| 20260507042410 | 61 | 319 | 0.0 | 0.0 | 0.00 | 0.00 | 0.00 | 69 | 1015.4 |
| 20260507041857 | 60 | 319 | 2.0 | 2.0 | 0.00 | 0.00 | 0.00 | 71 | 1015.3 |
| 20260507041345 | 59 | 319 | 2.0 | 2.0 | 0.00 | 0.00 | 0.00 | 74 | 1015.3 |
| 20260507040844 | 59 | 324 | 2.0 | 2.0 | 0.00 | 0.00 | 0.00 | 75 | 1015.3 |
| 20260507040332 | 58 | 324 | 2.0 | 2.0 | 0.00 | 0.00 | 0.00 | 76 | 1015.4 |
| 20260507035831 | 58 | 330 | 2.0 | 2.0 | 0.00 | 0.00 | 0.00 | 78 | 1015.3 |
| 20260507035331 | 58 | 330 | 2.0 | 2.0 | 0.00 | 0.00 | 0.00 | 77 | 1015.4 |
| 20260507034831 | 57 | 318 | 2.0 | 2.0 | 0.00 | 0.00 | 0.00 | 76 | 1015.3 |
| 20260507034332 | 58 | 312 | 2.0 | 2.0 | 0.00 | 0.00 | 0.00 | 77 | 1015.2 |
| 20260507033831 | 57 | 306 | 4.0 | 4.0 | 0.00 | 0.00 | 0.00 | 76 | 1015.2 |
| 20260507033331 | 56 | 312 | 4.0 | 4.0 | 0.00 | 0.00 | 0.00 | 78 | 1015.1 |
| 20260507032818 | 56 | 330 | 2.0 | 2.0 | 0.00 | 0.00 | 0.00 | 80 | 1015.2 |
| 20260507032306 | 57 | 330 | 2.0 | 2.0 | 0.00 | 0.00 | 0.00 | 79 | 1015.1 |
| 20260507031754 | 57 | 330 | 2.0 | 2.0 | 0.00 | 0.00 | 0.00 | 77 | 1015.0 |
| 20260507031253 | 56 | 318 | 2.0 | 2.0 | 0.00 | 0.00 | 0.00 | 80 | 1015.0 |
| 20260507030741 | 57 | 318 | 2.0 | 2.0 | 0.00 | 0.00 | 0.00 | 78 | 1015.0 |
| 20260507030241 | 57 | 318 | 2.0 | 2.0 | 0.00 | 0.00 | 0.00 | 79 | 1014.9 |
| 20260507025728 | 57 | 318 | 3.0 | 3.0 | 0.00 | 0.00 | 0.00 | 78 | 1014.9 |
| 20260507025229 | 57 | 318 | 4.0 | 4.0 | 0.00 | 0.00 | 0.00 | 78 | 1014.9 |
| 20260507024717 | 57 | 312 | 3.0 | 3.0 | 0.00 | 0.00 | 0.00 | 78 | 1014.9 |
| 20260507024216 | 57 | 312 | 3.0 | 3.0 | 0.00 | 0.00 | 0.00 | 79 | 1014.8 |
| 20260507023703 | 57 | 318 | 2.0 | 2.0 | 0.00 | 0.00 | 0.00 | 78 | 1014.7 |
| 20260507023151 | 58 | 318 | 3.0 | 3.0 | 0.00 | 0.00 | 0.00 | 76 | 1014.7 |
| 20260507022651 | 58 | 312 | 2.0 | 2.0 | 0.00 | 0.00 | 0.00 | 77 | 1014.7 |
| 20260507022139 | 58 | 318 | 2.0 | 2.0 | 0.00 | 0.00 | 0.00 | 77 | 1014.7 |
| 20260507021639 | 58 | 312 | 4.0 | 4.0 | 0.00 | 0.00 | 0.00 | 77 | 1014.7 |
| 20260507021126 | 58 | 318 | 3.0 | 3.0 | 0.00 | 0.00 | 0.00 | 77 | 1014.7 |
| 20260507020626 | 57 | 312 | 3.0 | 3.0 | 0.00 | 0.00 | 0.00 | 76 | 1014.7 |
| 20260507020114 | 57 | 312 | 2.0 | 2.0 | 0.00 | 0.00 | 0.00 | 78 | 1014.6 |
| 20260507015615 | 57 | 318 | 2.0 | 2.0 | 0.00 | 0.00 | 0.00 | 76 | 1014.6 |
| 20260507015102 | 57 | 312 | 4.0 | 4.0 | 0.00 | 0.00 | 0.00 | 78 | 1014.5 |
| 20260507014550 | 57 | 312 | 2.0 | 2.0 | 0.00 | 0.00 | 0.00 | 76 | 1014.4 |
| 20260507014049 | 58 | 312 | 2.0 | 2.0 | 0.00 | 0.00 | 0.00 | 73 | 1014.5 |
| 20260507013538 | 58 | 306 | 3.0 | 3.0 | 0.00 | 0.00 | 0.00 | 75 | 1014.3 |
| 20260507013039 | 59 | 312 | 2.0 | 2.0 | 0.00 | 0.00 | 0.00 | 73 | 1014.3 |
| 20260507012524 | 60 | 303 | 2.0 | 2.0 | 0.00 | 0.00 | 0.00 | 70 | 1014.4 |
| 20260507012024 | 61 | 96 | 2.0 | 2.0 | 0.00 | 0.00 | 0.00 | 67 | 1014.3 |
| 20260507011511 | 60 | 336 | 2.0 | 2.0 | 0.00 | 0.00 | 0.00 | 71 | 1014.3 |
| 20260507011011 | 59 | 312 | 2.0 | 2.0 | 0.00 | 0.00 | 0.00 | 71 | 1014.3 |
| 20260507010501 | 59 | 303 | 2.0 | 2.0 | 0.00 | 0.00 | 0.00 | 71 | 1014.3 |
| 20260507005946 | 60 | 306 | 2.0 | 2.0 | 0.00 | 0.00 | 0.00 | 67 | 1014.2 |
| 20260507005447 | 60 | 246 | 3.0 | 3.0 | 0.00 | 0.00 | 0.00 | 67 | 1014.2 |
| 20260507004938 | 59 | 300 | 2.0 | 2.0 | 0.00 | 0.00 | 0.00 | 69 | 1014.1 |
| 20260507004434 | 58 | 312 | 4.0 | 4.0 | 0.00 | 0.00 | 0.00 | 71 | 1014.1 |
| 20260507003921 | 58 | 318 | 4.0 | 4.0 | 0.00 | 0.00 | 0.00 | 69 | 1014.2 |
| 20260507003421 | 58 | 318 | 2.0 | 2.0 | 0.00 | 0.00 | 0.00 | 73 | 1014.2 |
| 20260507002909 | 58 | 312 | 4.0 | 4.0 | 0.00 | 0.00 | 0.00 | 72 | 1014.1 |
| 20260507002409 | 58 | 312 | 2.0 | 2.0 | 0.00 | 0.00 | 0.00 | 73 | 1014.1 |
| 20260507001856 | 58 | 324 | 2.0 | 2.0 | 0.00 | 0.00 | 0.00 | 70 | 1014.2 |
| 20260507001344 | 58 | 324 | 2.0 | 2.0 | 0.00 | 0.00 | 0.00 | 70 | 1014.3 |
| 20260507000844 | 58 | 320 | 4.0 | 4.0 | 0.00 | 0.00 | 0.00 | 69 | 1014.3 |
| 20260507000345 | 58 | 318 | 2.0 | 2.0 | 0.00 | 0.00 | 0.00 | 68 | 1014.3 |
| 20260506235846 | 58 | 318 | 2.0 | 2.0 | 0.00 | 0.00 | 0.00 | 70 | 1014.4 |
| 20260506235343 | 58 | 318 | 2.0 | 2.0 | 0.00 | 0.00 | 0.00 | 70 | 1014.4 |
| 20260506234843 | 58 | 294 | 4.0 | 4.0 | 0.00 | 0.00 | 0.00 | 70 | 1014.4 |
| 20260506234331 | 59 | 318 | 2.0 | 2.0 | 0.00 | 0.00 | 0.00 | 69 | 1014.5 |
| 20260506233831 | 59 | 324 | 4.0 | 4.0 | 0.00 | 0.00 | 0.00 | 68 | 1014.5 |
| 20260506233318 | 59 | 306 | 0.0 | 0.0 | 0.00 | 0.00 | 0.00 | 66 | 1014.5 |
| 20260506232819 | 60 | 318 | 3.0 | 3.0 | 0.00 | 0.00 | 0.00 | 64 | 1014.5 |
| 20260506232318 | 61 | 312 | 2.0 | 2.0 | 0.00 | 0.00 | 0.00 | 65 | 1014.5 |
| 20260506231818 | 60 | 318 | 4.0 | 4.0 | 0.00 | 0.00 | 0.00 | 62 | 1014.5 |
| 20260506231317 | 59 | 312 | 2.0 | 2.0 | 0.00 | 0.00 | 0.00 | 65 | 1014.6 |
| 20260506230805 | 59 | 306 | 3.0 | 3.0 | 0.00 | 0.00 | 0.00 | 64 | 1014.5 |
| 20260506230253 | 60 | 300 | 2.0 | 2.0 | 0.00 | 0.00 | 0.00 | 68 | 1014.6 |
| 20260506225753 | 60 | 320 | 4.0 | 4.0 | 0.00 | 0.00 | 0.00 | 66 | 1014.6 |
| 20260506225254 | 60 | 318 | 2.0 | 2.0 | 0.00 | 0.00 | 0.00 | 66 | 1014.6 |
| 20260506224752 | 62 | 318 | 4.0 | 4.0 | 0.00 | 0.00 | 0.00 | 62 | 1014.6 |
| 20260506224252 | 62 | 312 | 4.0 | 4.0 | 0.00 | 0.00 | 0.00 | 62 | 1014.7 |
| 20260506223752 | 62 | 324 | 4.0 | 4.0 | 0.00 | 0.00 | 0.00 | 61 | 1014.8 |
| 20260506223239 | 62 | 312 | 4.0 | 4.0 | 0.00 | 0.00 | 0.00 | 60 | 1014.8 |
| 20260506222739 | 62 | 306 | 2.0 | 2.0 | 0.00 | 0.00 | 0.00 | 62 | 1014.8 |
| 20260506222227 | 62 | 306 | 0.0 | 0.0 | 0.00 | 0.00 | 0.00 | 62 | 1014.8 |
| 20260506221728 | 62 | 306 | 4.0 | 4.0 | 0.00 | 0.00 | 0.00 | 59 | 1014.8 |
| 20260506221227 | 61 | 312 | 2.0 | 2.0 | 0.00 | 0.00 | 0.00 | 60 | 1014.8 |
| 20260506220727 | 60 | 318 | 4.0 | 4.0 | 0.00 | 0.00 | 0.00 | 64 | 1014.8 |
| 20260506220226 | 61 | 324 | 4.0 | 4.0 | 0.00 | 0.00 | 0.00 | 62 | 1014.7 |
| 20260506215726 | 60 | 324 | 2.0 | 2.0 | 0.00 | 0.00 | 0.00 | 65 | 1014.8 |
| 20260506215214 | 62 | 324 | 2.0 | 2.0 | 0.00 | 0.00 | 0.00 | 62 | 1014.8 |
| 20260506214715 | 62 | 312 | 2.0 | 2.0 | 0.00 | 0.00 | 0.00 | 62 | 1014.8 |
| 20260506214214 | 61 | 318 | 4.0 | 4.0 | 0.00 | 0.00 | 0.00 | 59 | 1014.8 |
| 20260506213715 | 61 | 319 | 2.0 | 2.0 | 0.00 | 0.00 | 0.00 | 61 | 1014.8 |
| 20260506213213 | 62 | 318 | 4.0 | 5.0 | 0.00 | 0.00 | 0.00 | 61 | 1014.8 |
| 20260506212701 | 61 | 318 | 4.0 | 4.0 | 0.00 | 0.00 | 0.00 | 62 | 1014.8 |
| 20260506212201 | 62 | 314 | 4.0 | 5.0 | 0.00 | 0.00 | 0.00 | 62 | 1014.8 |
| 20260506211702 | 62 | 306 | 3.0 | 3.0 | 0.00 | 0.00 | 0.00 | 63 | 1014.7 |
| 20260506211201 | 61 | 312 | 4.0 | 4.0 | 0.00 | 0.00 | 0.00 | 62 | 1014.7 |
| 20260506210700 | 62 | 314 | 4.0 | 4.0 | 0.00 | 0.00 | 0.00 | 64 | 1014.6 |
| 20260506210201 | 62 | 318 | 4.0 | 4.0 | 0.00 | 0.00 | 0.00 | 62 | 1014.7 |
| 20260506205648 | 62 | 312 | 4.0 | 4.0 | 0.00 | 0.00 | 0.00 | 60 | 1014.7 |
| 20260506205148 | 62 | 318 | 4.0 | 4.0 | 0.00 | 0.00 | 0.00 | 61 | 1014.7 |
| 20260506204635 | 61 | 312 | 4.0 | 5.0 | 0.00 | 0.00 | 0.00 | 63 | 1014.7 |
| 20260506204136 | 60 | 320 | 4.0 | 4.0 | 0.00 | 0.00 | 0.00 | 65 | 1014.6 |
| 20260506203635 | 59 | 306 | 4.0 | 4.0 | 0.00 | 0.00 | 0.00 | 66 | 1014.7 |
| 20260506203135 | 58 | 318 | 2.0 | 2.0 | 0.00 | 0.00 | 0.00 | 72 | 1014.7 |
| 20260506202638 | 58 | 319 | 2.0 | 2.0 | 0.00 | 0.00 | 0.00 | 72 | 1014.7 |
| 20260506202135 | 57 | 306 | 3.0 | 3.0 | 0.00 | 0.00 | 0.00 | 74 | 1014.6 |
| 20260506201623 | 59 | 312 | 3.0 | 3.0 | 0.00 | 0.00 | 0.00 | 71 | 1014.6 |
| 20260506201110 | 58 | 312 | 2.0 | 2.0 | 0.00 | 0.00 | 0.00 | 72 | 1014.6 |
| 20260506200611 | 59 | 318 | 2.0 | 2.0 | 0.00 | 0.00 | 0.00 | 73 | 1014.7 |
| 20260506200104 | 59 | 318 | 4.0 | 4.0 | 0.00 | 0.00 | 0.00 | 71 | 1014.7 |
| 20260506195558 | 59 | 312 | 4.0 | 5.0 | 0.00 | 0.00 | 0.00 | 72 | 1014.7 |
| 20260506195045 | 58 | 318 | 4.0 | 4.0 | 0.00 | 0.00 | 0.00 | 72 | 1014.7 |
| 20260506194545 | 58 | 312 | 2.0 | 2.0 | 0.00 | 0.00 | 0.00 | 72 | 1014.7 |
| 20260506194033 | 58 | 312 | 2.0 | 2.0 | 0.00 | 0.00 | 0.00 | 73 | 1014.7 |
| 20260506193521 | 59 | 312 | 2.0 | 2.0 | 0.00 | 0.00 | 0.00 | 71 | 1014.7 |
| 20260506193020 | 59 | 312 | 4.0 | 4.0 | 0.00 | 0.00 | 0.00 | 71 | 1014.7 |
| 20260506192507 | 59 | 312 | 4.0 | 4.0 | 0.00 | 0.00 | 0.00 | 71 | 1014.6 |
| 20260506192008 | 59 | 312 | 3.0 | 3.0 | 0.00 | 0.00 | 0.00 | 71 | 1014.6 |
| 20260506191455 | 59 | 318 | 4.0 | 4.0 | 0.00 | 0.00 | 0.00 | 70 | 1014.6 |
| 20260506190956 | 59 | 312 | 3.0 | 3.0 | 0.00 | 0.00 | 0.00 | 72 | 1014.5 |
| 20260506190455 | 59 | 306 | 2.0 | 2.0 | 0.00 | 0.00 | 0.00 | 69 | 1014.4 |
| 20260506185955 | 59 | 312 | 3.0 | 3.0 | 0.00 | 0.00 | 0.00 | 71 | 1014.4 |
| 20260506185455 | 60 | 306 | 3.0 | 3.0 | 0.00 | 0.00 | 0.00 | 69 | 1014.3 |
| 20260506184955 | 60 | 318 | 2.0 | 2.0 | 0.00 | 0.00 | 0.00 | 67 | 1014.3 |
| 20260506184442 | 61 | 312 | 4.0 | 4.0 | 0.00 | 0.00 | 0.00 | 67 | 1014.2 |
| 20260506183946 | 62 | 318 | 2.0 | 2.0 | 0.00 | 0.00 | 0.00 | 67 | 1014.1 |
| 20260506183431 | 62 | 306 | 2.0 | 2.0 | 0.00 | 0.00 | 0.00 | 66 | 1014.0 |
| 20260506182918 | 62 | 318 | 2.0 | 2.0 | 0.00 | 0.00 | 0.00 | 66 | 1014.0 |
| 20260506182417 | 62 | 312 | 3.0 | 3.0 | 0.00 | 0.00 | 0.00 | 65 | 1014.0 |
| 20260506181918 | 63 | 312 | 2.0 | 2.0 | 0.00 | 0.00 | 0.00 | 64 | 1013.9 |
| 20260506181417 | 63 | 312 | 3.0 | 3.0 | 0.00 | 0.00 | 0.00 | 64 | 1013.9 |
| 20260506180918 | 63 | 318 | 2.0 | 2.0 | 0.00 | 0.00 | 0.00 | 63 | 1013.8 |
| 20260506180417 | 63 | 330 | 2.0 | 2.0 | 0.00 | 0.00 | 0.00 | 63 | 1013.7 |
| 20260506175917 | 64 | 318 | 2.0 | 2.0 | 0.00 | 0.00 | 0.00 | 61 | 1013.7 |
| 20260506175417 | 64 | 319 | 2.0 | 2.0 | 0.00 | 0.00 | 0.00 | 59 | 1013.7 |
| 20260506174917 | 65 | 330 | 2.0 | 2.0 | 0.00 | 0.00 | 0.00 | 58 | 1013.6 |
| 20260506174417 | 66 | 336 | 4.0 | 4.0 | 0.00 | 0.00 | 0.00 | 55 | 1013.6 |
| 20260506173904 | 66 | 23 | 4.0 | 5.0 | 0.00 | 0.00 | 0.00 | 55 | 1013.5 |
| 20260506173405 | 66 | 330 | 2.0 | 2.0 | 0.00 | 0.00 | 0.00 | 55 | 1013.5 |
| 20260506172852 | 66 | 348 | 2.0 | 2.0 | 0.00 | 0.00 | 0.00 | 53 | 1013.5 |
| 20260506172340 | 66 | 22 | 4.0 | 4.0 | 0.00 | 0.00 | 0.00 | 53 | 1013.6 |
| 20260506171839 | 66 | 354 | 2.0 | 2.0 | 0.00 | 0.00 | 0.00 | 52 | 1013.6 |
| 20260506171327 | 66 | 14 | 4.0 | 5.0 | 0.00 | 0.00 | 0.00 | 55 | 1013.6 |
| 20260506170827 | 67 | 342 | 4.0 | 4.0 | 0.00 | 0.00 | 0.00 | 55 | 1013.5 |
| 20260506170314 | 67 | 20 | 3.0 | 3.0 | 0.00 | 0.00 | 0.00 | 55 | 1013.6 |
| 20260506165801 | 67 | 37 | 5.0 | 5.0 | 0.00 | 0.00 | 0.00 | 55 | 1013.6 |
| 20260506165305 | 67 | 13 | 2.0 | 2.0 | 0.00 | 0.00 | 0.00 | 56 | 1013.5 |
| 20260506164749 | 67 | 25 | 2.0 | 2.0 | 0.00 | 0.00 | 0.00 | 57 | 1013.5 |
| 20260506164249 | 67 | 308 | 5.0 | 5.0 | 0.00 | 0.00 | 0.00 | 57 | 1013.6 |
| 20260506163737 | 67 | 36 | 4.0 | 4.0 | 0.00 | 0.00 | 0.00 | 58 | 1013.5 |
| 20260506163238 | 67 | 36 | 4.0 | 4.0 | 0.00 | 0.00 | 0.00 | 57 | 1013.6 |
| 20260506162725 | 67 | 36 | 3.0 | 3.0 | 0.00 | 0.00 | 0.00 | 57 | 1013.7 |
| 20260506162212 | 68 | 62 | 4.0 | 4.0 | 0.00 | 0.00 | 0.00 | 56 | 1013.6 |
| 20260506161712 | 69 | 336 | 5.0 | 5.0 | 0.00 | 0.00 | 0.00 | 53 | 1013.5 |
| 20260506161159 | 70 | 8 | 3.0 | 3.0 | 0.00 | 0.00 | 0.00 | 51 | 1013.5 |
| 20260506160659 | 70 | 30 | 2.0 | 2.0 | 0.00 | 0.00 | 0.00 | 50 | 1013.5 |
| 20260506160147 | 69 | 42 | 2.0 | 2.0 | 0.00 | 0.00 | 0.00 | 49 | 1013.6 |
| 20260506155647 | 69 | 0 | 4.0 | 5.0 | 0.00 | 0.00 | 0.00 | 48 | 1013.6 |
| 20260506155134 | 70 | 352 | 2.0 | 2.0 | 0.00 | 0.00 | 0.00 | 48 | 1013.5 |
| 20260506154621 | 70 | 66 | 2.0 | 2.0 | 0.00 | 0.00 | 0.00 | 49 | 1013.5 |
| 20260506154121 | 70 | 72 | 4.0 | 4.0 | 0.00 | 0.00 | 0.00 | 48 | 1013.6 |
| 20260506153609 | 70 | 49 | 4.0 | 4.0 | 0.00 | 0.00 | 0.00 | 48 | 1013.6 |
| 20260506153110 | 71 | 29 | 2.0 | 2.0 | 0.00 | 0.00 | 0.00 | 47 | 1013.6 |